sensor_id;sensor_type;location;lat;lon;timestamp;P1;durP1;ratioP1;P2;durP2;ratioP2
20415;SDS011;10367;52.202;5.996;2022-08-04T00:00:24;22.70;;;20.67;;
20415;SDS011;10367;52.202;5.996;2022-08-04T00:02:58;23.40;;;21.17;;
20415;SDS011;10367;52.202;5.996;2022-08-04T00:05:40;21.47;;;19.77;;
20415;SDS011;10367;52.202;5.996;2022-08-04T00:08:25;20.07;;;18.33;;
20415;SDS011;10367;52.202;5.996;2022-08-04T00:11:03;24.80;;;21.03;;
20415;SDS011;10367;52.202;5.996;2022-08-04T00:13:41;22.33;;;20.17;;
20415;SDS011;10367;52.202;5.996;2022-08-04T00:16:32;21.50;;;19.60;;
20415;SDS011;10367;52.202;5.996;2022-08-04T00:19:06;23.80;;;21.53;;
20415;SDS011;10367;52.202;5.996;2022-08-04T00:21:38;26.33;;;20.83;;
20415;SDS011;10367;52.202;5.996;2022-08-04T00:24:09;22.50;;;20.30;;
20415;SDS011;10367;52.202;5.996;2022-08-04T00:26:41;22.30;;;20.23;;
20415;SDS011;10367;52.202;5.996;2022-08-04T00:29:10;22.40;;;20.37;;
20415;SDS011;10367;52.202;5.996;2022-08-04T00:31:40;23.03;;;20.87;;
20415;SDS011;10367;52.202;5.996;2022-08-04T00:34:23;20.40;;;18.87;;
20415;SDS011;10367;52.202;5.996;2022-08-04T00:36:54;22.60;;;20.43;;
20415;SDS011;10367;52.202;5.996;2022-08-04T00:39:25;21.20;;;19.37;;
20415;SDS011;10367;52.202;5.996;2022-08-04T00:45:33;20.70;;;18.73;;
20415;SDS011;10367;52.202;5.996;2022-08-04T00:48:36;25.00;;;20.23;;
20415;SDS011;10367;52.202;5.996;2022-08-04T00:51:22;21.30;;;19.30;;
20415;SDS011;10367;52.202;5.996;2022-08-04T00:54:04;21.17;;;19.40;;
20415;SDS011;10367;52.202;5.996;2022-08-04T00:56:54;21.80;;;19.70;;
20415;SDS011;10367;52.202;5.996;2022-08-04T00:59:41;22.33;;;20.10;;
20415;SDS011;10367;52.202;5.996;2022-08-04T01:02:23;20.93;;;18.93;;
20415;SDS011;10367;52.202;5.996;2022-08-04T01:05:03;22.40;;;20.03;;
20415;SDS011;10367;52.202;5.996;2022-08-04T01:07:44;21.07;;;19.30;;
20415;SDS011;10367;52.202;5.996;2022-08-04T01:10:29;21.17;;;19.27;;
20415;SDS011;10367;52.202;5.996;2022-08-04T01:13:11;21.57;;;19.67;;
20415;SDS011;10367;52.202;5.996;2022-08-04T01:16:04;24.67;;;21.90;;
20415;SDS011;10367;52.202;5.996;2022-08-04T01:18:40;21.87;;;19.83;;
20415;SDS011;10367;52.202;5.996;2022-08-04T01:21:29;19.73;;;18.10;;
20415;SDS011;10367;52.202;5.996;2022-08-04T01:24:29;21.23;;;19.33;;
20415;SDS011;10367;52.202;5.996;2022-08-04T01:27:22;19.90;;;18.23;;
20415;SDS011;10367;52.202;5.996;2022-08-04T01:29:59;22.83;;;20.70;;
20415;SDS011;10367;52.202;5.996;2022-08-04T01:32:30;21.33;;;19.17;;
20415;SDS011;10367;52.202;5.996;2022-08-04T01:35:02;23.30;;;20.57;;
20415;SDS011;10367;52.202;5.996;2022-08-04T01:37:44;22.00;;;19.80;;
20415;SDS011;10367;52.202;5.996;2022-08-04T01:40:16;21.70;;;19.63;;
20415;SDS011;10367;52.202;5.996;2022-08-04T01:42:45;23.00;;;20.43;;
20415;SDS011;10367;52.202;5.996;2022-08-04T01:45:21;21.07;;;18.97;;
20415;SDS011;10367;52.202;5.996;2022-08-04T01:47:52;20.97;;;19.10;;
20415;SDS011;10367;52.202;5.996;2022-08-04T01:50:23;19.73;;;18.10;;
20415;SDS011;10367;52.202;5.996;2022-08-04T01:52:53;21.90;;;19.63;;
20415;SDS011;10367;52.202;5.996;2022-08-04T01:55:23;21.83;;;19.77;;
20415;SDS011;10367;52.202;5.996;2022-08-04T01:58:13;20.70;;;18.87;;
20415;SDS011;10367;52.202;5.996;2022-08-04T02:00:49;20.20;;;17.87;;
20415;SDS011;10367;52.202;5.996;2022-08-04T02:03:23;20.67;;;18.70;;
20415;SDS011;10367;52.202;5.996;2022-08-04T02:06:17;21.03;;;19.03;;
20415;SDS011;10367;52.202;5.996;2022-08-04T02:09:00;22.33;;;19.77;;
20415;SDS011;10367;52.202;5.996;2022-08-04T02:11:35;21.93;;;19.70;;
20415;SDS011;10367;52.202;5.996;2022-08-04T02:14:10;26.80;;;20.87;;
20415;SDS011;10367;52.202;5.996;2022-08-04T02:17:09;22.43;;;20.30;;
20415;SDS011;10367;52.202;5.996;2022-08-04T02:22:32;23.03;;;20.73;;
20415;SDS011;10367;52.202;5.996;2022-08-04T02:25:03;22.30;;;20.03;;
20415;SDS011;10367;52.202;5.996;2022-08-04T02:27:39;21.80;;;19.53;;
20415;SDS011;10367;52.202;5.996;2022-08-04T02:30:28;20.53;;;18.67;;
20415;SDS011;10367;52.202;5.996;2022-08-04T02:33:02;23.07;;;20.77;;
20415;SDS011;10367;52.202;5.996;2022-08-04T02:35:34;20.40;;;18.67;;
20415;SDS011;10367;52.202;5.996;2022-08-04T02:38:16;22.00;;;19.93;;
20415;SDS011;10367;52.202;5.996;2022-08-04T02:40:52;20.30;;;18.47;;
20415;SDS011;10367;52.202;5.996;2022-08-04T02:43:26;21.60;;;18.50;;
20415;SDS011;10367;52.202;5.996;2022-08-04T02:46:17;20.77;;;19.10;;
20415;SDS011;10367;52.202;5.996;2022-08-04T02:48:50;20.47;;;18.63;;
20415;SDS011;10367;52.202;5.996;2022-08-04T02:51:22;19.47;;;17.90;;
20415;SDS011;10367;52.202;5.996;2022-08-04T02:53:53;22.37;;;20.00;;
20415;SDS011;10367;52.202;5.996;2022-08-04T02:56:24;20.47;;;18.83;;
20415;SDS011;10367;52.202;5.996;2022-08-04T02:58:57;18.67;;;16.97;;
20415;SDS011;10367;52.202;5.996;2022-08-04T03:01:27;20.20;;;18.50;;
20415;SDS011;10367;52.202;5.996;2022-08-04T03:04:11;20.40;;;18.30;;
20415;SDS011;10367;52.202;5.996;2022-08-04T03:09:57;20.23;;;18.43;;
20415;SDS011;10367;52.202;5.996;2022-08-04T03:13:14;21.43;;;19.40;;
20415;SDS011;10367;52.202;5.996;2022-08-04T03:15:59;21.80;;;19.70;;
20415;SDS011;10367;52.202;5.996;2022-08-04T03:24:56;21.40;;;19.43;;
20415;SDS011;10367;52.202;5.996;2022-08-04T03:27:55;21.10;;;19.00;;
20415;SDS011;10367;52.202;5.996;2022-08-04T03:31:06;19.13;;;17.60;;
20415;SDS011;10367;52.202;5.996;2022-08-04T03:33:56;20.03;;;18.30;;
20415;SDS011;10367;52.202;5.996;2022-08-04T03:36:46;20.73;;;18.83;;
20415;SDS011;10367;52.202;5.996;2022-08-04T03:39:42;20.63;;;18.60;;
20415;SDS011;10367;52.202;5.996;2022-08-04T03:46:08;20.83;;;19.00;;
20415;SDS011;10367;52.202;5.996;2022-08-04T03:49:05;22.60;;;20.30;;
20415;SDS011;10367;52.202;5.996;2022-08-04T03:51:52;21.63;;;19.50;;
20415;SDS011;10367;52.202;5.996;2022-08-04T03:55:07;22.47;;;20.03;;
20415;SDS011;10367;52.202;5.996;2022-08-04T04:01:10;32.73;;;22.83;;
20415;SDS011;10367;52.202;5.996;2022-08-04T04:03:59;21.63;;;19.37;;
20415;SDS011;10367;52.202;5.996;2022-08-04T04:06:48;20.97;;;19.03;;
20415;SDS011;10367;52.202;5.996;2022-08-04T04:15:54;20.53;;;18.60;;
20415;SDS011;10367;52.202;5.996;2022-08-04T04:18:51;20.53;;;18.73;;
20415;SDS011;10367;52.202;5.996;2022-08-04T04:21:38;21.70;;;19.57;;
20415;SDS011;10367;52.202;5.996;2022-08-04T04:24:32;20.07;;;18.17;;
20415;SDS011;10367;52.202;5.996;2022-08-04T04:27:18;20.73;;;18.83;;
20415;SDS011;10367;52.202;5.996;2022-08-04T04:35:45;20.17;;;18.20;;
20415;SDS011;10367;52.202;5.996;2022-08-04T04:41:24;21.33;;;19.37;;
20415;SDS011;10367;52.202;5.996;2022-08-04T04:44:22;21.37;;;19.30;;
20415;SDS011;10367;52.202;5.996;2022-08-04T04:47:13;25.20;;;19.63;;
20415;SDS011;10367;52.202;5.996;2022-08-04T04:50:11;24.30;;;20.73;;
20415;SDS011;10367;52.202;5.996;2022-08-04T04:52:46;20.37;;;18.70;;
20415;SDS011;10367;52.202;5.996;2022-08-04T04:55:23;19.27;;;17.33;;
20415;SDS011;10367;52.202;5.996;2022-08-04T04:57:56;19.70;;;17.90;;
20415;SDS011;10367;52.202;5.996;2022-08-04T05:00:29;18.37;;;16.93;;
20415;SDS011;10367;52.202;5.996;2022-08-04T05:03:14;25.20;;;19.53;;
20415;SDS011;10367;52.202;5.996;2022-08-04T05:06:06;19.87;;;17.97;;
20415;SDS011;10367;52.202;5.996;2022-08-04T05:08:52;21.67;;;19.23;;
20415;SDS011;10367;52.202;5.996;2022-08-04T05:11:57;19.47;;;17.73;;
20415;SDS011;10367;52.202;5.996;2022-08-04T05:15:07;21.60;;;19.37;;
20415;SDS011;10367;52.202;5.996;2022-08-04T05:17:39;19.23;;;17.47;;
20415;SDS011;10367;52.202;5.996;2022-08-04T05:20:12;23.77;;;20.40;;
20415;SDS011;10367;52.202;5.996;2022-08-04T05:22:44;24.00;;;21.40;;
20415;SDS011;10367;52.202;5.996;2022-08-04T05:25:18;20.97;;;18.93;;
20415;SDS011;10367;52.202;5.996;2022-08-04T05:27:50;18.27;;;16.93;;
20415;SDS011;10367;52.202;5.996;2022-08-04T05:30:25;19.30;;;17.80;;
20415;SDS011;10367;52.202;5.996;2022-08-04T05:32:57;21.10;;;19.20;;
20415;SDS011;10367;52.202;5.996;2022-08-04T05:35:32;20.60;;;18.77;;
20415;SDS011;10367;52.202;5.996;2022-08-04T05:38:25;21.03;;;19.03;;
20415;SDS011;10367;52.202;5.996;2022-08-04T05:40:56;19.97;;;18.13;;
20415;SDS011;10367;52.202;5.996;2022-08-04T05:43:26;20.37;;;18.43;;
20415;SDS011;10367;52.202;5.996;2022-08-04T05:45:54;20.40;;;18.67;;
20415;SDS011;10367;52.202;5.996;2022-08-04T05:48:25;22.67;;;20.30;;
20415;SDS011;10367;52.202;5.996;2022-08-04T05:50:57;21.73;;;19.97;;
20415;SDS011;10367;52.202;5.996;2022-08-04T05:53:27;21.90;;;20.13;;
20415;SDS011;10367;52.202;5.996;2022-08-04T05:55:57;22.13;;;20.23;;
20415;SDS011;10367;52.202;5.996;2022-08-04T05:58:27;25.43;;;23.00;;
20415;SDS011;10367;52.202;5.996;2022-08-04T06:00:57;21.20;;;19.20;;
20415;SDS011;10367;52.202;5.996;2022-08-04T06:03:28;22.10;;;20.33;;
20415;SDS011;10367;52.202;5.996;2022-08-04T06:05:59;23.53;;;21.30;;
20415;SDS011;10367;52.202;5.996;2022-08-04T06:08:29;20.70;;;19.20;;
20415;SDS011;10367;52.202;5.996;2022-08-04T06:10:59;23.07;;;21.37;;
20415;SDS011;10367;52.202;5.996;2022-08-04T06:13:32;23.90;;;21.77;;
20415;SDS011;10367;52.202;5.996;2022-08-04T06:16:17;23.23;;;21.30;;
20415;SDS011;10367;52.202;5.996;2022-08-04T06:18:57;22.97;;;20.97;;
20415;SDS011;10367;52.202;5.996;2022-08-04T06:21:52;22.33;;;20.47;;
20415;SDS011;10367;52.202;5.996;2022-08-04T06:24:23;23.00;;;21.20;;
20415;SDS011;10367;52.202;5.996;2022-08-04T06:26:55;23.17;;;21.27;;
20415;SDS011;10367;52.202;5.996;2022-08-04T06:29:24;23.27;;;21.13;;
20415;SDS011;10367;52.202;5.996;2022-08-04T06:32:00;21.77;;;20.10;;
20415;SDS011;10367;52.202;5.996;2022-08-04T06:34:58;23.43;;;21.53;;
20415;SDS011;10367;52.202;5.996;2022-08-04T06:37:30;25.03;;;22.93;;
20415;SDS011;10367;52.202;5.996;2022-08-04T06:40:10;27.07;;;24.60;;
20415;SDS011;10367;52.202;5.996;2022-08-04T06:42:58;24.63;;;22.53;;
20415;SDS011;10367;52.202;5.996;2022-08-04T06:45:28;27.83;;;24.77;;
20415;SDS011;10367;52.202;5.996;2022-08-04T06:48:00;27.80;;;24.80;;
20415;SDS011;10367;52.202;5.996;2022-08-04T06:50:32;25.80;;;23.43;;
20415;SDS011;10367;52.202;5.996;2022-08-04T06:53:24;24.33;;;22.30;;
20415;SDS011;10367;52.202;5.996;2022-08-04T06:55:53;25.70;;;23.33;;
20415;SDS011;10367;52.202;5.996;2022-08-04T06:58:24;22.80;;;21.00;;
20415;SDS011;10367;52.202;5.996;2022-08-04T07:00:58;25.53;;;23.30;;
20415;SDS011;10367;52.202;5.996;2022-08-04T07:03:28;25.10;;;22.87;;
20415;SDS011;10367;52.202;5.996;2022-08-04T07:05:58;27.67;;;24.97;;
20415;SDS011;10367;52.202;5.996;2022-08-04T07:08:41;25.37;;;23.37;;
20415;SDS011;10367;52.202;5.996;2022-08-04T07:11:10;27.03;;;24.43;;
20415;SDS011;10367;52.202;5.996;2022-08-04T07:13:40;27.33;;;24.93;;
20415;SDS011;10367;52.202;5.996;2022-08-04T07:16:12;25.23;;;23.03;;
20415;SDS011;10367;52.202;5.996;2022-08-04T07:18:41;25.60;;;23.13;;
20415;SDS011;10367;52.202;5.996;2022-08-04T07:21:10;25.93;;;23.53;;
20415;SDS011;10367;52.202;5.996;2022-08-04T07:23:47;26.40;;;23.97;;
20415;SDS011;10367;52.202;5.996;2022-08-04T07:26:16;25.90;;;23.53;;
20415;SDS011;10367;52.202;5.996;2022-08-04T07:28:45;23.83;;;22.13;;
20415;SDS011;10367;52.202;5.996;2022-08-04T07:31:14;24.07;;;22.23;;
20415;SDS011;10367;52.202;5.996;2022-08-04T07:34:01;27.93;;;25.27;;
20415;SDS011;10367;52.202;5.996;2022-08-04T07:36:43;25.10;;;23.10;;
20415;SDS011;10367;52.202;5.996;2022-08-04T07:39:18;24.93;;;22.93;;
20415;SDS011;10367;52.202;5.996;2022-08-04T07:41:55;31.27;;;24.60;;
20415;SDS011;10367;52.202;5.996;2022-08-04T07:44:27;25.40;;;22.90;;
20415;SDS011;10367;52.202;5.996;2022-08-04T07:46:57;25.23;;;23.13;;
20415;SDS011;10367;52.202;5.996;2022-08-04T07:49:27;26.33;;;24.07;;
20415;SDS011;10367;52.202;5.996;2022-08-04T07:52:16;26.00;;;23.87;;
20415;SDS011;10367;52.202;5.996;2022-08-04T07:54:47;27.87;;;25.40;;
20415;SDS011;10367;52.202;5.996;2022-08-04T07:57:17;24.60;;;22.60;;
20415;SDS011;10367;52.202;5.996;2022-08-04T08:00:07;27.77;;;24.97;;
20415;SDS011;10367;52.202;5.996;2022-08-04T08:02:37;27.50;;;24.63;;
20415;SDS011;10367;52.202;5.996;2022-08-04T08:05:07;26.17;;;23.70;;
20415;SDS011;10367;52.202;5.996;2022-08-04T08:07:39;25.70;;;23.23;;
20415;SDS011;10367;52.202;5.996;2022-08-04T08:10:21;27.70;;;25.20;;
20415;SDS011;10367;52.202;5.996;2022-08-04T08:12:51;25.43;;;23.33;;
20415;SDS011;10367;52.202;5.996;2022-08-04T08:15:20;26.27;;;24.10;;
20415;SDS011;10367;52.202;5.996;2022-08-04T08:17:50;26.03;;;23.80;;
20415;SDS011;10367;52.202;5.996;2022-08-04T08:20:27;25.17;;;23.27;;
20415;SDS011;10367;52.202;5.996;2022-08-04T08:22:57;24.20;;;22.30;;
20415;SDS011;10367;52.202;5.996;2022-08-04T08:25:30;25.53;;;23.67;;
20415;SDS011;10367;52.202;5.996;2022-08-04T08:28:01;27.07;;;24.77;;
20415;SDS011;10367;52.202;5.996;2022-08-04T08:30:31;26.17;;;24.03;;
20415;SDS011;10367;52.202;5.996;2022-08-04T08:33:01;27.13;;;24.63;;
20415;SDS011;10367;52.202;5.996;2022-08-04T08:35:39;26.23;;;23.87;;
20415;SDS011;10367;52.202;5.996;2022-08-04T08:38:26;25.53;;;23.83;;
20415;SDS011;10367;52.202;5.996;2022-08-04T08:41:10;27.13;;;24.87;;
20415;SDS011;10367;52.202;5.996;2022-08-04T08:44:04;27.60;;;25.43;;
20415;SDS011;10367;52.202;5.996;2022-08-04T08:47:04;26.33;;;24.23;;
20415;SDS011;10367;52.202;5.996;2022-08-04T08:50:00;25.90;;;23.67;;
20415;SDS011;10367;52.202;5.996;2022-08-04T08:52:51;24.30;;;22.50;;
20415;SDS011;10367;52.202;5.996;2022-08-04T08:55:41;26.03;;;23.77;;
20415;SDS011;10367;52.202;5.996;2022-08-04T08:58:37;24.83;;;22.77;;
20415;SDS011;10367;52.202;5.996;2022-08-04T09:01:17;26.37;;;24.17;;
20415;SDS011;10367;52.202;5.996;2022-08-04T09:04:07;27.50;;;25.07;;
20415;SDS011;10367;52.202;5.996;2022-08-04T09:06:53;26.20;;;23.73;;
20415;SDS011;10367;52.202;5.996;2022-08-04T09:09:46;25.10;;;22.90;;
20415;SDS011;10367;52.202;5.996;2022-08-04T09:12:21;27.07;;;24.73;;
20415;SDS011;10367;52.202;5.996;2022-08-04T09:14:59;24.93;;;22.70;;
20415;SDS011;10367;52.202;5.996;2022-08-04T09:17:32;25.07;;;23.17;;
20415;SDS011;10367;52.202;5.996;2022-08-04T09:20:09;26.90;;;24.50;;
20415;SDS011;10367;52.202;5.996;2022-08-04T09:22:44;26.13;;;23.90;;
20415;SDS011;10367;52.202;5.996;2022-08-04T09:25:18;26.20;;;23.77;;
20415;SDS011;10367;52.202;5.996;2022-08-04T09:27:52;25.87;;;23.90;;
20415;SDS011;10367;52.202;5.996;2022-08-04T09:30:26;25.47;;;23.23;;
20415;SDS011;10367;52.202;5.996;2022-08-04T09:33:03;26.10;;;23.90;;
20415;SDS011;10367;52.202;5.996;2022-08-04T09:35:52;26.27;;;24.40;;
20415;SDS011;10367;52.202;5.996;2022-08-04T09:38:28;24.73;;;23.13;;
20415;SDS011;10367;52.202;5.996;2022-08-04T09:41:02;25.77;;;24.00;;
20415;SDS011;10367;52.202;5.996;2022-08-04T09:44:05;26.80;;;24.77;;
20415;SDS011;10367;52.202;5.996;2022-08-04T09:47:08;26.13;;;24.13;;
20415;SDS011;10367;52.202;5.996;2022-08-04T09:49:42;25.83;;;23.80;;
20415;SDS011;10367;52.202;5.996;2022-08-04T09:52:22;27.37;;;25.00;;
20415;SDS011;10367;52.202;5.996;2022-08-04T09:54:58;25.83;;;23.80;;
20415;SDS011;10367;52.202;5.996;2022-08-04T09:57:38;25.13;;;23.13;;
20415;SDS011;10367;52.202;5.996;2022-08-04T10:00:15;26.27;;;23.77;;
20415;SDS011;10367;52.202;5.996;2022-08-04T10:03:08;27.13;;;25.17;;
20415;SDS011;10367;52.202;5.996;2022-08-04T10:05:48;25.20;;;23.30;;
20415;SDS011;10367;52.202;5.996;2022-08-04T10:08:30;26.63;;;24.53;;
20415;SDS011;10367;52.202;5.996;2022-08-04T10:11:26;26.27;;;24.30;;
20415;SDS011;10367;52.202;5.996;2022-08-04T10:17:22;26.40;;;24.60;;
20415;SDS011;10367;52.202;5.996;2022-08-04T10:20:02;26.35;;;24.30;;
20415;SDS011;10367;52.202;5.996;2022-08-04T10:22:36;27.40;;;25.02;;
20415;SDS011;10367;52.202;5.996;2022-08-04T10:25:32;28.35;;;25.73;;
20415;SDS011;10367;52.202;5.996;2022-08-04T10:28:29;26.40;;;24.20;;
20415;SDS011;10367;52.202;5.996;2022-08-04T10:31:05;25.23;;;23.35;;
20415;SDS011;10367;52.202;5.996;2022-08-04T10:33:38;27.35;;;25.08;;
20415;SDS011;10367;52.202;5.996;2022-08-04T10:36:14;26.80;;;24.83;;
20415;SDS011;10367;52.202;5.996;2022-08-04T10:38:49;24.05;;;22.45;;
20415;SDS011;10367;52.202;5.996;2022-08-04T10:41:25;26.75;;;24.55;;
20415;SDS011;10367;52.202;5.996;2022-08-04T10:44:00;25.07;;;23.10;;
20415;SDS011;10367;52.202;5.996;2022-08-04T10:46:43;24.93;;;22.93;;
20415;SDS011;10367;52.202;5.996;2022-08-04T10:49:20;25.23;;;23.23;;
20415;SDS011;10367;52.202;5.996;2022-08-04T10:51:53;23.87;;;22.17;;
20415;SDS011;10367;52.202;5.996;2022-08-04T10:54:30;25.20;;;23.27;;
20415;SDS011;10367;52.202;5.996;2022-08-04T10:57:10;24.83;;;23.03;;
20415;SDS011;10367;52.202;5.996;2022-08-04T10:59:44;26.40;;;24.30;;
20415;SDS011;10367;52.202;5.996;2022-08-04T11:02:26;24.67;;;22.57;;
20415;SDS011;10367;52.202;5.996;2022-08-04T11:05:04;24.80;;;22.67;;
20415;SDS011;10367;52.202;5.996;2022-08-04T11:07:47;23.47;;;21.60;;
20415;SDS011;10367;52.202;5.996;2022-08-04T11:10:19;25.13;;;22.83;;
20415;SDS011;10367;52.202;5.996;2022-08-04T11:12:53;24.27;;;22.43;;
20415;SDS011;10367;52.202;5.996;2022-08-04T11:15:26;25.83;;;23.63;;
20415;SDS011;10367;52.202;5.996;2022-08-04T11:18:01;24.23;;;22.30;;
20415;SDS011;10367;52.202;5.996;2022-08-04T11:20:43;23.77;;;21.90;;
20415;SDS011;10367;52.202;5.996;2022-08-04T11:23:19;24.17;;;22.33;;
20415;SDS011;10367;52.202;5.996;2022-08-04T11:25:56;23.03;;;21.50;;
20415;SDS011;10367;52.202;5.996;2022-08-04T11:28:32;23.50;;;21.50;;
20415;SDS011;10367;52.202;5.996;2022-08-04T11:31:25;24.47;;;22.57;;
20415;SDS011;10367;52.202;5.996;2022-08-04T11:34:00;24.90;;;22.70;;
20415;SDS011;10367;52.202;5.996;2022-08-04T11:36:35;23.30;;;21.67;;
20415;SDS011;10367;52.202;5.996;2022-08-04T11:39:11;24.60;;;22.77;;
20415;SDS011;10367;52.202;5.996;2022-08-04T11:41:47;22.10;;;20.80;;
20415;SDS011;10367;52.202;5.996;2022-08-04T11:44:23;24.97;;;22.77;;
20415;SDS011;10367;52.202;5.996;2022-08-04T11:46:58;22.37;;;20.83;;
20415;SDS011;10367;52.202;5.996;2022-08-04T11:49:32;23.87;;;21.90;;
20415;SDS011;10367;52.202;5.996;2022-08-04T11:52:24;23.63;;;21.83;;
20415;SDS011;10367;52.202;5.996;2022-08-04T11:54:56;22.63;;;21.03;;
20415;SDS011;10367;52.202;5.996;2022-08-04T11:57:26;22.30;;;20.67;;
20415;SDS011;10367;52.202;5.996;2022-08-04T12:00:04;23.03;;;21.23;;
20415;SDS011;10367;52.202;5.996;2022-08-04T12:02:40;24.37;;;22.40;;
20415;SDS011;10367;52.202;5.996;2022-08-04T12:05:32;22.43;;;20.60;;
20415;SDS011;10367;52.202;5.996;2022-08-04T12:08:11;23.60;;;21.53;;
20415;SDS011;10367;52.202;5.996;2022-08-04T12:10:56;22.37;;;20.73;;
20415;SDS011;10367;52.202;5.996;2022-08-04T12:13:34;22.07;;;20.30;;
20415;SDS011;10367;52.202;5.996;2022-08-04T12:16:11;23.83;;;21.90;;
20415;SDS011;10367;52.202;5.996;2022-08-04T12:18:44;22.57;;;21.00;;
20415;SDS011;10367;52.202;5.996;2022-08-04T12:21:22;22.50;;;20.90;;
20415;SDS011;10367;52.202;5.996;2022-08-04T12:23:57;22.67;;;21.13;;
20415;SDS011;10367;52.202;5.996;2022-08-04T12:26:33;25.13;;;22.93;;
20415;SDS011;10367;52.202;5.996;2022-08-04T12:29:05;23.30;;;21.60;;
20415;SDS011;10367;52.202;5.996;2022-08-04T12:31:40;24.27;;;22.17;;
20415;SDS011;10367;52.202;5.996;2022-08-04T12:34:13;25.20;;;23.00;;
20415;SDS011;10367;52.202;5.996;2022-08-04T12:36:47;23.00;;;21.30;;
20415;SDS011;10367;52.202;5.996;2022-08-04T12:39:22;24.63;;;22.87;;
20415;SDS011;10367;52.202;5.996;2022-08-04T12:41:57;23.37;;;21.60;;
20415;SDS011;10367;52.202;5.996;2022-08-04T12:44:31;23.70;;;21.90;;
20415;SDS011;10367;52.202;5.996;2022-08-04T12:47:06;24.57;;;22.67;;
20415;SDS011;10367;52.202;5.996;2022-08-04T12:49:55;22.83;;;21.13;;
20415;SDS011;10367;52.202;5.996;2022-08-04T12:52:29;25.40;;;23.27;;
20415;SDS011;10367;52.202;5.996;2022-08-04T12:55:23;24.10;;;21.97;;
20415;SDS011;10367;52.202;5.996;2022-08-04T12:57:56;23.33;;;21.73;;
20415;SDS011;10367;52.202;5.996;2022-08-04T13:00:33;22.43;;;20.80;;
20415;SDS011;10367;52.202;5.996;2022-08-04T13:03:08;25.47;;;23.27;;
20415;SDS011;10367;52.202;5.996;2022-08-04T13:05:38;24.83;;;22.83;;
20415;SDS011;10367;52.202;5.996;2022-08-04T13:08:09;25.07;;;22.97;;
20415;SDS011;10367;52.202;5.996;2022-08-04T13:10:39;24.40;;;22.60;;
20415;SDS011;10367;52.202;5.996;2022-08-04T13:13:14;23.67;;;22.07;;
20415;SDS011;10367;52.202;5.996;2022-08-04T13:15:53;24.17;;;22.50;;
20415;SDS011;10367;52.202;5.996;2022-08-04T13:18:24;24.47;;;22.57;;
20415;SDS011;10367;52.202;5.996;2022-08-04T13:21:11;24.67;;;22.77;;
20415;SDS011;10367;52.202;5.996;2022-08-04T13:23:48;23.63;;;21.97;;
20415;SDS011;10367;52.202;5.996;2022-08-04T13:29:32;26.87;;;24.53;;
20415;SDS011;10367;52.202;5.996;2022-08-04T13:32:23;25.73;;;23.53;;
20415;SDS011;10367;52.202;5.996;2022-08-04T13:34:54;25.43;;;23.37;;
20415;SDS011;10367;52.202;5.996;2022-08-04T13:37:25;26.33;;;24.17;;
20415;SDS011;10367;52.202;5.996;2022-08-04T13:39:59;25.27;;;23.67;;
20415;SDS011;10367;52.202;5.996;2022-08-04T13:42:30;26.80;;;24.70;;
20415;SDS011;10367;52.202;5.996;2022-08-04T13:45:03;24.63;;;22.63;;
20415;SDS011;10367;52.202;5.996;2022-08-04T13:47:35;24.27;;;22.67;;
20415;SDS011;10367;52.202;5.996;2022-08-04T13:50:14;25.93;;;24.20;;
20415;SDS011;10367;52.202;5.996;2022-08-04T13:52:45;24.80;;;23.10;;
20415;SDS011;10367;52.202;5.996;2022-08-04T13:55:18;25.23;;;23.43;;
20415;SDS011;10367;52.202;5.996;2022-08-04T13:57:52;25.40;;;23.63;;
20415;SDS011;10367;52.202;5.996;2022-08-04T14:00:26;25.47;;;23.47;;
20415;SDS011;10367;52.202;5.996;2022-08-04T14:03:13;25.43;;;23.63;;
20415;SDS011;10367;52.202;5.996;2022-08-04T14:06:07;24.30;;;22.70;;
20415;SDS011;10367;52.202;5.996;2022-08-04T14:08:45;25.67;;;24.07;;
20415;SDS011;10367;52.202;5.996;2022-08-04T14:11:17;25.47;;;23.43;;
20415;SDS011;10367;52.202;5.996;2022-08-04T14:14:13;25.27;;;23.53;;
20415;SDS011;10367;52.202;5.996;2022-08-04T14:16:57;25.13;;;23.33;;
20415;SDS011;10367;52.202;5.996;2022-08-04T14:19:47;26.87;;;24.77;;
20415;SDS011;10367;52.202;5.996;2022-08-04T14:22:29;24.70;;;23.00;;
20415;SDS011;10367;52.202;5.996;2022-08-04T14:25:02;25.55;;;23.75;;
20415;SDS011;10367;52.202;5.996;2022-08-04T14:27:43;25.27;;;23.23;;
20415;SDS011;10367;52.202;5.996;2022-08-04T14:33:03;23.52;;;22.00;;
20415;SDS011;10367;52.202;5.996;2022-08-04T14:35:56;24.27;;;22.77;;
20415;SDS011;10367;52.202;5.996;2022-08-04T14:38:43;25.88;;;24.17;;
20415;SDS011;10367;52.202;5.996;2022-08-04T14:41:14;25.02;;;23.33;;
20415;SDS011;10367;52.202;5.996;2022-08-04T14:43:45;25.02;;;23.40;;
20415;SDS011;10367;52.202;5.996;2022-08-04T14:46:15;24.88;;;23.08;;
20415;SDS011;10367;52.202;5.996;2022-08-04T14:49:05;24.10;;;22.65;;
20415;SDS011;10367;52.202;5.996;2022-08-04T14:51:37;25.95;;;24.08;;
20415;SDS011;10367;52.202;5.996;2022-08-04T14:54:08;25.38;;;23.60;;
20415;SDS011;10367;52.202;5.996;2022-08-04T14:56:50;24.83;;;23.05;;
20415;SDS011;10367;52.202;5.996;2022-08-04T14:59:20;25.42;;;23.73;;
20415;SDS011;10367;52.202;5.996;2022-08-04T15:01:49;24.70;;;23.05;;
20415;SDS011;10367;52.202;5.996;2022-08-04T15:04:28;26.90;;;24.80;;
20415;SDS011;10367;52.202;5.996;2022-08-04T15:06:58;23.45;;;22.10;;
20415;SDS011;10367;52.202;5.996;2022-08-04T15:09:31;26.50;;;24.52;;
20415;SDS011;10367;52.202;5.996;2022-08-04T15:12:00;23.60;;;22.10;;
20415;SDS011;10367;52.202;5.996;2022-08-04T15:14:30;25.25;;;23.58;;
20415;SDS011;10367;52.202;5.996;2022-08-04T15:17:03;24.73;;;23.02;;
20415;SDS011;10367;52.202;5.996;2022-08-04T15:19:55;24.83;;;23.23;;
20415;SDS011;10367;52.202;5.996;2022-08-04T15:22:25;26.40;;;24.50;;
20415;SDS011;10367;52.202;5.996;2022-08-04T15:24:56;25.43;;;23.77;;
20415;SDS011;10367;52.202;5.996;2022-08-04T15:27:25;26.13;;;24.13;;
20415;SDS011;10367;52.202;5.996;2022-08-04T15:29:57;22.98;;;21.55;;
20415;SDS011;10367;52.202;5.996;2022-08-04T15:32:28;25.05;;;23.38;;
20415;SDS011;10367;52.202;5.996;2022-08-04T15:35:02;25.93;;;24.03;;
20415;SDS011;10367;52.202;5.996;2022-08-04T15:37:36;24.63;;;23.00;;
20415;SDS011;10367;52.202;5.996;2022-08-04T15:40:11;24.38;;;22.85;;
20415;SDS011;10367;52.202;5.996;2022-08-04T15:42:43;25.13;;;23.27;;
20415;SDS011;10367;52.202;5.996;2022-08-04T15:45:19;24.17;;;22.48;;
20415;SDS011;10367;52.202;5.996;2022-08-04T15:51:01;24.40;;;22.60;;
20415;SDS011;10367;52.202;5.996;2022-08-04T15:56:58;24.13;;;22.57;;
20415;SDS011;10367;52.202;5.996;2022-08-04T16:02:39;25.43;;;23.53;;
20415;SDS011;10367;52.202;5.996;2022-08-04T16:08:10;24.90;;;23.10;;
20415;SDS011;10367;52.202;5.996;2022-08-04T16:10:46;25.30;;;23.37;;
20415;SDS011;10367;52.202;5.996;2022-08-04T16:13:17;25.23;;;23.43;;
20415;SDS011;10367;52.202;5.996;2022-08-04T16:15:49;25.67;;;23.77;;
20415;SDS011;10367;52.202;5.996;2022-08-04T16:21:15;25.03;;;23.27;;
20415;SDS011;10367;52.202;5.996;2022-08-04T16:24:03;25.87;;;23.93;;
20415;SDS011;10367;52.202;5.996;2022-08-04T16:26:43;26.03;;;23.97;;
20415;SDS011;10367;52.202;5.996;2022-08-04T16:32:13;25.60;;;23.50;;